createdAt,value
2022-08-31T00:02:39.783Z,17.58
2022-08-31T00:05:10.207Z,17.59
2022-08-31T00:07:40.286Z,17.60
2022-08-31T00:10:15.109Z,17.62
2022-08-31T00:12:45.373Z,17.65
2022-08-31T00:15:17.134Z,17.67
2022-08-31T00:17:45.831Z,17.67
2022-08-31T00:20:32.893Z,17.69
2022-08-31T00:23:15.491Z,17.69
2022-08-31T00:25:46.991Z,17.69
2022-08-31T00:28:17.051Z,17.70
2022-08-31T00:30:46.025Z,17.70
2022-08-31T00:33:16.889Z,17.71
2022-08-31T00:35:45.779Z,17.68
2022-08-31T00:38:15.584Z,17.67
2022-08-31T00:40:46.994Z,17.67
2022-08-31T00:44:02.488Z,17.68
2022-08-31T00:46:34.582Z,17.70
2022-08-31T00:49:10.517Z,17.71
2022-08-31T00:52:04.778Z,17.72
2022-08-31T00:54:39.216Z,17.71
2022-08-31T00:57:09.491Z,17.67
2022-08-31T00:59:41.480Z,17.60
2022-08-31T01:02:10.403Z,17.53
2022-08-31T01:04:38.917Z,17.46
2022-08-31T01:07:08.859Z,17.42
2022-08-31T01:09:45.078Z,17.41
2022-08-31T01:12:26.530Z,17.41
2022-08-31T01:14:55.937Z,17.39
2022-08-31T01:17:24.897Z,17.37
2022-08-31T01:20:20.819Z,17.37
2022-08-31T01:22:52.188Z,17.38
2022-08-31T01:25:20.931Z,17.37
2022-08-31T01:27:49.483Z,17.36
2022-08-31T01:30:23.742Z,17.33
2022-08-31T01:32:56.356Z,17.26
2022-08-31T01:35:29.427Z,17.19
2022-08-31T01:38:00.762Z,17.16
2022-08-31T01:40:44.360Z,17.12
2022-08-31T01:43:14.419Z,17.09
2022-08-31T01:45:43.811Z,17.08
2022-08-31T01:48:12.931Z,17.07
2022-08-31T01:50:41.807Z,17.05
2022-08-31T01:53:14.918Z,17.04
2022-08-31T01:55:43.277Z,17.02
2022-08-31T01:58:39.295Z,17.00
2022-08-31T02:01:33.510Z,16.99
2022-08-31T02:04:05.679Z,16.98
2022-08-31T02:06:35.771Z,16.99
2022-08-31T02:09:07.077Z,16.99
2022-08-31T02:11:36.784Z,16.99
2022-08-31T02:14:08.057Z,16.97
2022-08-31T02:16:39.430Z,16.94
2022-08-31T02:19:09.363Z,16.92
2022-08-31T02:21:38.022Z,16.90
2022-08-31T02:24:08.199Z,16.86
2022-08-31T02:26:36.432Z,16.84
2022-08-31T02:29:07.578Z,16.83
2022-08-31T02:31:36.577Z,16.82
2022-08-31T02:34:08.091Z,16.80
2022-08-31T02:36:37.672Z,16.78
2022-08-31T02:39:10.887Z,16.77
2022-08-31T02:41:43.603Z,16.77
2022-08-31T02:44:12.225Z,16.75
2022-08-31T02:46:41.908Z,16.74
2022-08-31T02:49:34.354Z,16.75
2022-08-31T02:52:03.198Z,16.75
2022-08-31T02:54:35.193Z,16.75
2022-08-31T02:57:03.513Z,16.76
2022-08-31T02:59:33.363Z,16.76
2022-08-31T03:02:03.211Z,16.76
2022-08-31T03:04:32.894Z,16.74
2022-08-31T03:07:01.020Z,16.74
2022-08-31T03:09:30.218Z,16.71
2022-08-31T03:12:00.179Z,16.70
2022-08-31T03:14:28.450Z,16.65
2022-08-31T03:16:56.767Z,16.64
2022-08-31T03:19:25.209Z,16.65
2022-08-31T03:21:54.824Z,16.67
2022-08-31T03:24:28.251Z,16.70
2022-08-31T03:26:57.215Z,16.71
2022-08-31T03:29:25.509Z,16.69
2022-08-31T03:32:15.914Z,16.65
2022-08-31T03:34:47.114Z,16.63
2022-08-31T03:37:22.210Z,16.60
2022-08-31T03:39:52.163Z,16.58
2022-08-31T03:42:25.161Z,16.57
2022-08-31T03:44:55.853Z,16.59
2022-08-31T03:47:31.789Z,16.62
2022-08-31T03:50:04.315Z,16.65
2022-08-31T03:52:43.871Z,16.70
2022-08-31T03:55:16.730Z,16.72
2022-08-31T03:57:50.110Z,16.74
2022-08-31T04:00:29.869Z,16.75
2022-08-31T04:03:05.233Z,16.75
2022-08-31T04:05:43.331Z,16.77
2022-08-31T04:08:33.854Z,16.79
2022-08-31T04:11:44.461Z,16.81
2022-08-31T04:14:57.086Z,16.84
2022-08-31T04:17:47.879Z,16.87
2022-08-31T04:20:40.764Z,16.92
2022-08-31T04:23:10.711Z,16.93
2022-08-31T04:25:52.571Z,16.93
2022-08-31T04:28:20.939Z,16.97
2022-08-31T04:30:49.415Z,17.05
2022-08-31T04:33:18.079Z,17.14
2022-08-31T04:35:46.606Z,17.21
2022-08-31T04:38:14.811Z,17.28
2022-08-31T04:40:44.227Z,17.35
2022-08-31T04:43:12.932Z,17.42
2022-08-31T04:45:45.912Z,17.49
2022-08-31T04:48:14.711Z,17.57
2022-08-31T04:50:43.485Z,17.62
2022-08-31T04:53:12.441Z,17.66
2022-08-31T04:55:42.254Z,17.69
2022-08-31T04:58:13.149Z,17.73
2022-08-31T05:00:44.391Z,17.71
2022-08-31T05:03:24.424Z,17.67
2022-08-31T05:05:55.358Z,17.67
2022-08-31T05:08:26.036Z,17.69
2022-08-31T05:10:58.090Z,17.73
2022-08-31T05:13:30.103Z,17.78
2022-08-31T05:15:59.842Z,17.82
2022-08-31T05:18:28.459Z,17.88
2022-08-31T05:20:58.349Z,17.95
2022-08-31T05:23:47.367Z,18.03
2022-08-31T05:26:21.541Z,18.04
2022-08-31T05:28:55.675Z,18.08
2022-08-31T05:31:30.869Z,18.09
2022-08-31T05:34:02.788Z,18.06
2022-08-31T05:36:38.490Z,18.10
2022-08-31T05:39:15.760Z,18.16
2022-08-31T05:41:46.322Z,18.25
2022-08-31T05:44:15.547Z,18.33
2022-08-31T05:46:45.013Z,18.40
2022-08-31T05:49:23.840Z,18.46
2022-08-31T05:51:59.784Z,18.52
2022-08-31T05:54:33.238Z,18.56
2022-08-31T05:57:09.646Z,18.59
2022-08-31T05:59:39.620Z,18.55
2022-08-31T06:02:13.868Z,18.56
2022-08-31T06:04:43.397Z,18.58
2022-08-31T06:07:13.051Z,18.62
2022-08-31T06:09:48.771Z,18.69
2022-08-31T06:12:20.275Z,18.76
2022-08-31T06:14:52.723Z,18.87
2022-08-31T06:17:24.541Z,19.00
2022-08-31T06:19:53.054Z,19.15
2022-08-31T06:22:21.564Z,19.25
2022-08-31T06:24:55.774Z,19.37
2022-08-31T06:27:25.170Z,19.50
2022-08-31T06:29:58.926Z,19.67
2022-08-31T06:32:27.377Z,19.68
2022-08-31T06:34:59.757Z,19.74
2022-08-31T06:37:47.791Z,19.89
2022-08-31T06:40:45.727Z,19.92
2022-08-31T06:43:33.656Z,19.99
2022-08-31T06:46:14.428Z,20.05
2022-08-31T06:49:17.259Z,20.04
2022-08-31T06:51:52.666Z,20.17
2022-08-31T06:54:29.308Z,20.46
2022-08-31T06:57:26.341Z,21.01
2022-08-31T07:00:14.570Z,21.66
2022-08-31T07:02:54.745Z,22.10
2022-08-31T07:05:26.918Z,22.30
2022-08-31T07:07:56.442Z,22.54
2022-08-31T07:10:26.287Z,22.81
2022-08-31T07:12:56.202Z,22.86
2022-08-31T07:15:29.439Z,22.79
2022-08-31T07:18:00.223Z,22.69
2022-08-31T07:20:29.707Z,22.68
2022-08-31T07:23:03.766Z,22.73
2022-08-31T07:25:47.087Z,22.55
2022-08-31T07:28:18.888Z,22.43
2022-08-31T07:30:50.225Z,22.46
2022-08-31T07:33:43.413Z,22.68
2022-08-31T07:36:20.552Z,22.96
2022-08-31T07:39:27.573Z,23.17
2022-08-31T07:42:14.852Z,22.92
2022-08-31T07:44:56.323Z,22.74
2022-08-31T07:47:36.258Z,22.70
2022-08-31T07:50:07.228Z,22.49
2022-08-31T07:52:49.127Z,22.45
2022-08-31T07:55:46.028Z,22.28
2022-08-31T07:58:32.143Z,22.06
2022-08-31T08:01:03.210Z,22.03
2022-08-31T08:03:34.426Z,22.04
2022-08-31T08:06:23.703Z,22.15
2022-08-31T08:09:24.230Z,22.25
2022-08-31T08:12:08.437Z,22.44
2022-08-31T08:14:59.267Z,22.55
2022-08-31T08:17:43.496Z,22.70
2022-08-31T08:20:18.840Z,22.81
2022-08-31T08:23:18.295Z,22.87
2022-08-31T08:26:21.436Z,22.99
2022-08-31T08:29:13.957Z,23.22
2022-08-31T08:31:56.438Z,23.91
2022-08-31T08:34:32.419Z,24.38
2022-08-31T08:37:12.479Z,24.26
2022-08-31T08:39:45.242Z,24.00
2022-08-31T08:42:22.392Z,23.67
2022-08-31T08:44:50.958Z,23.34
2022-08-31T08:47:24.806Z,23.07
2022-08-31T08:50:08.123Z,22.84
2022-08-31T08:52:45.658Z,22.64
2022-08-31T08:55:19.480Z,22.39
2022-08-31T08:57:56.228Z,22.62
2022-08-31T09:00:35.731Z,22.91
2022-08-31T09:03:44.808Z,23.42
2022-08-31T09:06:19.590Z,23.88
2022-08-31T09:09:08.800Z,23.97
2022-08-31T09:12:15.037Z,24.27
2022-08-31T09:15:15.948Z,24.74
2022-08-31T09:18:03.875Z,24.90
2022-08-31T09:20:38.175Z,24.99
2022-08-31T09:23:08.241Z,25.21
2022-08-31T09:25:52.727Z,25.35
2022-08-31T09:28:57.138Z,25.29
2022-08-31T09:31:37.880Z,25.25
2022-08-31T09:34:25.816Z,25.22
2022-08-31T09:37:12.069Z,25.00
2022-08-31T09:39:41.315Z,24.73
2022-08-31T09:42:31.247Z,25.02
2022-08-31T09:45:04.017Z,25.03
2022-08-31T09:47:51.112Z,24.79
2022-08-31T09:50:36.964Z,24.45
2022-08-31T09:53:48.459Z,24.16
2022-08-31T09:56:20.354Z,23.87
2022-08-31T09:58:51.446Z,23.83
2022-08-31T10:01:47.611Z,23.86
2022-08-31T10:04:20.208Z,24.00
2022-08-31T10:06:54.539Z,24.20
2022-08-31T10:09:37.416Z,24.17
2022-08-31T10:12:16.740Z,24.08
2022-08-31T10:15:22.164Z,24.04
2022-08-31T10:18:15.768Z,24.10
2022-08-31T10:20:51.874Z,24.25
2022-08-31T10:23:28.336Z,24.14
2022-08-31T10:26:11.326Z,24.06
2022-08-31T10:28:51.019Z,24.28
2022-08-31T10:31:32.014Z,24.68
2022-08-31T10:34:35.400Z,25.16
2022-08-31T10:37:22.635Z,25.80
2022-08-31T10:39:59.063Z,26.29
2022-08-31T10:42:41.039Z,26.51
2022-08-31T10:45:24.263Z,26.60
2022-08-31T10:48:00.639Z,26.28
2022-08-31T10:50:45.392Z,25.74
2022-08-31T10:53:35.898Z,25.28
2022-08-31T10:56:43.360Z,24.94
2022-08-31T10:59:33.538Z,24.86
2022-08-31T11:02:23.380Z,24.73
2022-08-31T11:04:55.899Z,24.51
2022-08-31T11:07:48.859Z,24.29
2022-08-31T11:10:49.920Z,24.05
2022-08-31T11:13:36.358Z,23.76
2022-08-31T11:16:20.282Z,23.60
2022-08-31T11:19:09.602Z,23.60
2022-08-31T11:21:42.440Z,23.66
2022-08-31T11:24:58.518Z,23.64
2022-08-31T11:27:37.145Z,23.64
2022-08-31T11:30:29.336Z,23.57
2022-08-31T11:33:07.932Z,23.55
2022-08-31T11:35:49.690Z,23.51
2022-08-31T11:38:48.871Z,23.50
2022-08-31T11:41:49.384Z,23.50
2022-08-31T11:44:30.154Z,23.52
2022-08-31T11:47:05.180Z,23.53
2022-08-31T11:49:50.401Z,23.52
2022-08-31T11:52:24.662Z,23.52
2022-08-31T11:54:52.845Z,23.56
2022-08-31T11:57:36.871Z,23.70
2022-08-31T12:00:20.301Z,23.91
2022-08-31T12:03:09.828Z,24.10
2022-08-31T12:05:56.654Z,24.02
2022-08-31T12:08:31.600Z,24.15
2022-08-31T12:11:07.098Z,24.69
2022-08-31T12:13:49.984Z,25.13
2022-08-31T12:16:57.423Z,25.56
2022-08-31T12:20:08.646Z,26.20
2022-08-31T12:23:29.978Z,26.63
2022-08-31T12:26:21.250Z,27.33
2022-08-31T12:29:20.130Z,28.05
2022-08-31T12:32:13.132Z,28.48
2022-08-31T12:34:55.405Z,28.91
2022-08-31T12:37:34.406Z,29.10
2022-08-31T12:40:15.758Z,29.24
2022-08-31T12:43:05.524Z,29.56
2022-08-31T12:46:04.090Z,29.74
2022-08-31T12:48:32.769Z,29.47
2022-08-31T12:51:09.582Z,29.53
2022-08-31T12:53:53.050Z,29.81
2022-08-31T12:57:13.266Z,29.85
2022-08-31T13:00:01.676Z,29.72
2022-08-31T13:02:35.950Z,29.91
2022-08-31T13:05:14.579Z,30.08
2022-08-31T13:07:43.199Z,30.24
2022-08-31T13:10:24.722Z,30.47
2022-08-31T13:13:03.646Z,30.84
2022-08-31T13:15:41.617Z,31.16
2022-08-31T13:18:31.279Z,31.41
2022-08-31T13:21:05.687Z,31.36
2022-08-31T13:23:41.592Z,31.04
2022-08-31T13:26:29.331Z,30.82
2022-08-31T13:29:04.779Z,30.53
2022-08-31T13:31:46.759Z,30.64
2022-08-31T13:34:15.155Z,30.46
2022-08-31T13:37:05.539Z,30.26
2022-08-31T13:39:45.638Z,30.05
2022-08-31T13:42:24.545Z,29.91
2022-08-31T13:45:00.212Z,29.87
2022-08-31T13:47:57.430Z,29.63
2022-08-31T13:50:52.462Z,29.06
2022-08-31T13:53:46.661Z,28.79
2022-08-31T13:56:41.360Z,28.40
2022-08-31T13:59:32.063Z,28.10
2022-08-31T14:02:15.782Z,27.71
2022-08-31T14:04:44.854Z,27.52
2022-08-31T14:07:43.435Z,27.27
2022-08-31T14:10:27.849Z,27.02
2022-08-31T14:13:14.632Z,26.83
2022-08-31T14:16:01.131Z,26.51
2022-08-31T14:18:45.334Z,26.31
2022-08-31T14:21:22.353Z,26.40
2022-08-31T14:24:03.280Z,26.50
2022-08-31T14:26:38.487Z,26.81
2022-08-31T14:29:18.631Z,27.10
2022-08-31T14:31:59.449Z,27.33
2022-08-31T14:34:37.220Z,27.45
2022-08-31T14:37:20.104Z,27.49
2022-08-31T14:39:58.121Z,27.43
2022-08-31T14:42:39.363Z,27.22
2022-08-31T14:45:19.470Z,26.99
2022-08-31T14:47:52.622Z,26.81
2022-08-31T14:50:27.271Z,26.54
2022-08-31T14:52:57.795Z,26.29
2022-08-31T14:55:32.173Z,25.97
2022-08-31T14:58:08.602Z,25.46
2022-08-31T15:00:52.765Z,24.97
2022-08-31T15:03:26.910Z,24.51
2022-08-31T15:05:55.872Z,23.97
2022-08-31T15:08:38.416Z,23.16
2022-08-31T15:11:08.591Z,22.07
2022-08-31T15:13:41.844Z,21.18
2022-08-31T15:16:15.357Z,20.45
2022-08-31T15:18:43.862Z,19.98
2022-08-31T15:21:13.029Z,19.73
2022-08-31T15:23:42.011Z,19.66
2022-08-31T15:26:14.971Z,19.66
2022-08-31T15:28:43.410Z,19.64
2022-08-31T15:31:32.190Z,19.66
2022-08-31T15:34:00.931Z,19.66
2022-08-31T15:36:29.579Z,19.67
2022-08-31T15:39:01.128Z,19.66
2022-08-31T15:41:29.955Z,19.60
2022-08-31T15:43:58.551Z,19.50
2022-08-31T15:46:45.906Z,19.41
2022-08-31T15:49:14.907Z,19.31
2022-08-31T15:51:50.467Z,19.14
2022-08-31T15:54:26.318Z,18.96
2022-08-31T15:57:00.680Z,18.75
2022-08-31T15:59:47.927Z,18.57
2022-08-31T16:02:21.350Z,18.46
2022-08-31T16:04:50.961Z,18.42
2022-08-31T16:07:22.763Z,18.42
2022-08-31T16:09:51.212Z,18.43
2022-08-31T16:12:21.352Z,18.45
2022-08-31T16:14:51.966Z,18.46
2022-08-31T16:17:24.710Z,18.49
2022-08-31T16:19:54.697Z,18.53
2022-08-31T16:22:28.325Z,18.57
2022-08-31T16:25:00.895Z,18.60
2022-08-31T16:27:30.395Z,18.63
2022-08-31T16:30:01.373Z,18.68
2022-08-31T16:32:30.561Z,18.72
2022-08-31T16:35:08.515Z,18.74
2022-08-31T16:37:36.823Z,18.74
2022-08-31T16:40:12.116Z,18.72
2022-08-31T16:42:41.752Z,18.68
2022-08-31T16:45:10.871Z,18.64
2022-08-31T16:47:39.388Z,18.60
2022-08-31T16:50:09.521Z,18.60
2022-08-31T16:52:37.927Z,18.59
2022-08-31T16:55:07.170Z,18.56
2022-08-31T16:57:35.835Z,18.53
2022-08-31T17:00:05.125Z,18.50
2022-08-31T17:02:35.836Z,18.47
2022-08-31T17:05:06.689Z,18.43
2022-08-31T17:07:38.707Z,18.40
2022-08-31T17:10:11.013Z,18.35
2022-08-31T17:12:42.203Z,18.35
2022-08-31T17:15:16.200Z,18.28
2022-08-31T17:17:48.575Z,18.34
2022-08-31T17:20:25.198Z,18.32
2022-08-31T17:22:56.215Z,18.29
2022-08-31T17:25:24.779Z,18.28
2022-08-31T17:27:59.472Z,18.24
2022-08-31T17:30:41.224Z,18.18
2022-08-31T17:33:12.766Z,18.15
2022-08-31T17:35:42.582Z,18.13
2022-08-31T17:38:11.102Z,18.08
2022-08-31T17:40:39.339Z,18.00
2022-08-31T17:43:07.681Z,17.92
2022-08-31T17:45:37.052Z,17.86
2022-08-31T17:48:05.415Z,17.85
2022-08-31T17:50:34.086Z,17.86
2022-08-31T17:53:02.472Z,17.89
2022-08-31T17:55:33.624Z,17.92
2022-08-31T17:58:02.081Z,17.90
2022-08-31T18:00:32.761Z,17.88
2022-08-31T18:03:01.104Z,17.87
2022-08-31T18:05:30.363Z,17.84
2022-08-31T18:08:05.551Z,17.80
2022-08-31T18:10:34.348Z,17.78
2022-08-31T18:13:06.732Z,17.75
2022-08-31T18:15:37.513Z,17.73
2022-08-31T18:18:06.663Z,17.70
2022-08-31T18:20:43.020Z,17.66
2022-08-31T18:23:15.295Z,17.63
2022-08-31T18:25:46.308Z,17.61
2022-08-31T18:28:14.671Z,17.54
2022-08-31T18:30:43.716Z,17.48
2022-08-31T18:33:14.846Z,17.42
2022-08-31T18:35:47.486Z,17.36
2022-08-31T18:38:42.631Z,17.29
2022-08-31T18:41:37.146Z,17.23
2022-08-31T18:44:25.003Z,17.16
2022-08-31T18:46:53.406Z,17.10
2022-08-31T18:49:24.689Z,17.07
2022-08-31T18:51:57.371Z,17.05
2022-08-31T18:54:27.243Z,17.03
2022-08-31T18:56:55.584Z,17.02
2022-08-31T18:59:26.012Z,17.00
2022-08-31T19:01:55.152Z,16.98
2022-08-31T19:04:25.807Z,16.96
2022-08-31T19:06:55.848Z,16.91
2022-08-31T19:09:25.607Z,16.86
2022-08-31T19:11:56.549Z,16.82
2022-08-31T19:14:26.595Z,16.78
2022-08-31T19:17:01.191Z,16.73
2022-08-31T19:19:32.513Z,16.68
2022-08-31T19:22:00.843Z,16.60
2022-08-31T19:24:30.230Z,16.54
2022-08-31T19:27:00.397Z,16.51
2022-08-31T19:29:31.559Z,16.51
2022-08-31T19:32:02.425Z,16.50
2022-08-31T19:34:34.937Z,16.49
2022-08-31T19:37:05.218Z,16.51
2022-08-31T19:39:37.161Z,16.51
2022-08-31T19:42:07.948Z,16.51
2022-08-31T19:44:54.919Z,16.51
2022-08-31T19:47:26.642Z,16.52
2022-08-31T19:49:57.622Z,16.55
2022-08-31T19:52:27.319Z,16.59
2022-08-31T19:54:55.807Z,16.61
2022-08-31T19:57:34.842Z,16.62
2022-08-31T20:00:13.026Z,16.63
2022-08-31T20:02:43.130Z,16.65
2022-08-31T20:05:12.534Z,16.66
2022-08-31T20:07:49.082Z,16.67
2022-08-31T20:10:21.434Z,16.67
2022-08-31T20:12:52.438Z,16.67
2022-08-31T20:15:25.265Z,16.66
2022-08-31T20:17:59.495Z,16.65
2022-08-31T20:20:27.964Z,16.65
2022-08-31T20:23:06.937Z,16.63
2022-08-31T20:25:39.935Z,16.62
2022-08-31T20:28:17.053Z,16.59
2022-08-31T20:30:57.674Z,16.56
2022-08-31T20:33:29.128Z,16.52
2022-08-31T20:35:58.329Z,16.48
2022-08-31T20:38:39.127Z,16.42
2022-08-31T20:41:14.296Z,16.39
2022-08-31T20:43:47.354Z,16.37
2022-08-31T20:46:37.714Z,16.35
2022-08-31T20:49:30.191Z,16.33
2022-08-31T20:52:02.022Z,16.33
2022-08-31T20:54:34.102Z,16.33
2022-08-31T20:57:05.319Z,16.33
2022-08-31T20:59:34.728Z,16.33
2022-08-31T21:02:05.834Z,16.33
2022-08-31T21:04:38.271Z,16.33
2022-08-31T21:07:07.014Z,16.34
2022-08-31T21:09:35.151Z,16.31
2022-08-31T21:12:08.933Z,16.28
2022-08-31T21:14:38.737Z,16.25
2022-08-31T21:17:07.998Z,16.24
2022-08-31T21:19:40.194Z,16.23
2022-08-31T21:22:14.913Z,16.22
2022-08-31T21:24:43.760Z,16.21
2022-08-31T21:27:15.150Z,16.19
2022-08-31T21:29:52.474Z,16.18
2022-08-31T21:32:21.366Z,16.14
2022-08-31T21:34:49.618Z,16.10
2022-08-31T21:37:17.883Z,16.04
2022-08-31T21:39:46.484Z,16.00
2022-08-31T21:42:15.185Z,15.97
2022-08-31T21:44:43.504Z,15.95
2022-08-31T21:47:15.265Z,15.92
2022-08-31T21:49:45.435Z,15.91
2022-08-31T21:52:17.544Z,15.89
2022-08-31T21:54:49.620Z,15.87
2022-08-31T21:57:18.041Z,15.85
2022-08-31T21:59:46.263Z,15.81
2022-08-31T22:02:16.964Z,15.79
2022-08-31T22:04:46.124Z,15.77
2022-08-31T22:07:16.969Z,15.72
2022-08-31T22:09:50.293Z,15.67
2022-08-31T22:12:20.293Z,15.63
2022-08-31T22:14:53.879Z,15.60
2022-08-31T22:17:37.147Z,15.56
2022-08-31T22:20:21.062Z,15.55
2022-08-31T22:22:51.442Z,15.54
2022-08-31T22:25:19.973Z,15.51
2022-08-31T22:27:48.350Z,15.50
2022-08-31T22:30:16.618Z,15.49
2022-08-31T22:32:47.182Z,15.49
2022-08-31T22:35:16.185Z,15.50
2022-08-31T22:37:44.503Z,15.52
2022-08-31T22:40:21.947Z,15.53
2022-08-31T22:42:52.159Z,15.55
2022-08-31T22:45:21.394Z,15.56
2022-08-31T22:47:50.534Z,15.55
2022-08-31T22:50:18.828Z,15.58
2022-08-31T22:52:47.016Z,15.58
2022-08-31T22:55:15.315Z,15.59
2022-08-31T22:57:43.703Z,15.58
2022-08-31T23:00:12.532Z,15.58
2022-08-31T23:02:47.487Z,15.60
2022-08-31T23:05:18.600Z,15.61
2022-08-31T23:07:48.504Z,15.66
2022-08-31T23:10:18.914Z,15.70
2022-08-31T23:12:52.484Z,15.74
2022-08-31T23:15:26.614Z,15.79
2022-08-31T23:17:55.424Z,15.81
2022-08-31T23:20:24.684Z,15.82
2022-08-31T23:22:55.535Z,15.83
2022-08-31T23:25:24.858Z,15.83
2022-08-31T23:27:53.788Z,15.81
2022-08-31T23:30:23.022Z,15.79
2022-08-31T23:32:53.859Z,15.74
2022-08-31T23:35:24.720Z,15.70
2022-08-31T23:37:53.751Z,15.66
2022-08-31T23:40:21.900Z,15.64
2022-08-31T23:42:57.082Z,15.63
2022-08-31T23:45:26.547Z,15.63
2022-08-31T23:47:54.982Z,15.63
2022-08-31T23:50:24.302Z,15.66
2022-08-31T23:52:53.429Z,15.67
2022-08-31T23:55:31.362Z,15.66
2022-08-31T23:57:59.711Z,15.66
